Time,TemperatureF,DewpointF,PressureIn,WindDirection,WindDirectionDegrees,WindSpeedMPH,WindSpeedGustMPH,Humidity,HourlyPrecipIn,Conditions,Clouds,dailyrainin,SolarRadiationWatts/m^2,SoftwareType,DateUTC
2013-07-08 00:01:00,60.0,49.0,29.73,NNW,331,0.0,1.0,68,0.00,,,0.00,0.000000,,2013-07-08 06:01:00,
2013-07-08 00:11:00,60.0,49.0,29.73,NNW,331,0.0,1.0,68,0.00,,,0.00,0.000000,,2013-07-08 06:11:00,
2013-07-08 00:22:00,60.0,50.0,29.73,NNW,327,0.0,1.0,69,0.00,,,0.00,0.000000,,2013-07-08 06:22:00,
2013-07-08 00:33:00,60.0,50.0,29.73,WNW,293,0.0,3.0,69,0.00,,,0.00,0.000000,,2013-07-08 06:33:00,
2013-07-08 00:42:00,60.0,50.0,29.73,WNW,293,0.0,3.0,69,0.00,,,0.00,0.000000,,2013-07-08 06:42:00,
2013-07-08 00:53:00,60.0,49.0,29.73,West,273,0.0,7.0,67,0.00,,,0.00,0.000000,,2013-07-08 06:53:00,
2013-07-08 01:02:00,60.0,49.0,29.73,West,265,0.0,2.0,67,0.00,,,0.00,0.000000,,2013-07-08 07:02:00,
2013-07-08 01:11:00,60.0,49.0,29.73,West,265,0.0,2.0,67,0.00,,,0.00,0.000000,,2013-07-08 07:11:00,
2013-07-08 01:22:00,60.0,48.0,29.74,West,270,0.0,4.0,64,0.00,,,0.00,0.000000,,2013-07-08 07:22:00,
2013-07-08 01:34:00,59.0,47.0,29.73,West,259,0.0,1.0,65,0.00,,,0.00,0.000000,,2013-07-08 07:34:00,
2013-07-08 01:44:00,59.0,47.0,29.73,West,259,0.0,1.0,65,0.00,,,0.00,0.000000,,2013-07-08 07:44:00,
2013-07-08 01:53:00,58.0,47.0,29.73,WNW,283,0.0,6.0,67,0.00,,,0.00,0.000000,,2013-07-08 07:53:00,
2013-07-08 02:01:00,58.0,47.0,29.73,West,263,0.0,2.0,68,0.00,,,0.00,0.000000,,2013-07-08 08:01:00,
2013-07-08 02:11:00,58.0,47.0,29.73,West,263,0.0,2.0,68,0.00,,,0.00,0.000000,,2013-07-08 08:11:00,
2013-07-08 02:22:00,57.0,47.0,29.73,West,263,0.0,4.0,68,0.00,,,0.00,0.000000,,2013-07-08 08:22:00,
2013-07-08 02:33:00,57.0,47.0,29.73,West,281,0.0,4.0,70,0.00,,,0.00,0.000000,,2013-07-08 08:33:00,
2013-07-08 02:42:00,57.0,47.0,29.73,West,281,0.0,4.0,70,0.00,,,0.00,0.000000,,2013-07-08 08:42:00,
2013-07-08 02:53:00,57.0,48.0,29.73,WSW,252,0.0,4.0,71,0.00,,,0.00,0.000000,,2013-07-08 08:53:00,
2013-07-08 03:01:00,57.0,48.0,29.74,WSW,249,0.0,1.0,72,0.00,,,0.00,0.000000,,2013-07-08 09:01:00,
2013-07-08 03:11:00,57.0,48.0,29.74,WSW,249,0.0,1.0,72,0.00,,,0.00,0.000000,,2013-07-08 09:11:00,
2013-07-08 03:21:00,57.0,48.0,29.74,WSW,238,2.0,5.0,72,0.00,,,0.00,0.000000,,2013-07-08 09:21:00,
2013-07-08 03:34:00,58.0,48.0,29.74,West,273,0.0,5.0,70,0.00,,,0.00,0.000000,,2013-07-08 09:34:00,
2013-07-08 03:43:00,58.0,48.0,29.74,West,273,0.0,5.0,70,0.00,,,0.00,0.000000,,2013-07-08 09:43:00,
2013-07-08 03:53:00,58.0,48.0,29.74,West,261,0.0,1.0,70,0.00,,,0.00,0.000000,,2013-07-08 09:53:00,
2013-07-08 04:01:00,58.0,49.0,29.74,West,261,0.0,2.0,71,0.00,,,0.00,0.000000,,2013-07-08 10:01:00,
2013-07-08 04:11:00,58.0,49.0,29.74,West,261,0.0,2.0,71,0.00,,,0.00,0.000000,,2013-07-08 10:11:00,
2013-07-08 04:22:00,57.0,48.0,29.74,WSW,237,0.0,3.0,72,0.00,,,0.00,0.000000,,2013-07-08 10:22:00,
2013-07-08 04:34:00,57.0,48.0,29.74,WSW,241,0.0,6.0,71,0.00,,,0.00,0.000000,,2013-07-08 10:34:00,
2013-07-08 04:43:00,57.0,48.0,29.74,WSW,241,0.0,6.0,71,0.00,,,0.00,0.000000,,2013-07-08 10:43:00,
2013-07-08 04:53:00,57.0,48.0,29.73,WSW,244,0.0,3.0,72,0.00,,,0.00,0.000000,,2013-07-08 10:53:00,
2013-07-08 05:01:00,56.0,47.0,29.74,WSW,244,0.0,1.0,72,0.00,,,0.00,0.000000,,2013-07-08 11:01:00,
2013-07-08 05:11:00,56.0,47.0,29.74,WSW,244,0.0,1.0,72,0.00,,,0.00,0.000000,,2013-07-08 11:11:00,
2013-07-08 05:22:00,56.0,48.0,29.73,WSW,244,0.0,1.0,74,0.00,,,0.00,0.000000,,2013-07-08 11:22:00,
2013-07-08 05:33:00,55.0,48.0,29.72,WSW,244,0.0,1.0,77,0.00,,,0.00,0.000000,,2013-07-08 11:33:00,
2013-07-08 05:43:00,55.0,48.0,29.72,WSW,244,0.0,1.0,77,0.00,,,0.00,0.000000,,2013-07-08 11:43:00,
2013-07-08 05:53:00,54.0,48.0,29.73,WSW,244,0.0,2.0,80,0.00,,,0.00,0.000000,,2013-07-08 11:53:00,
2013-07-08 06:01:00,54.0,49.0,29.73,WSW,244,0.0,1.0,82,0.00,,,0.00,12.000000,,2013-07-08 12:01:00,
2013-07-08 06:11:00,54.0,49.0,29.73,WSW,244,0.0,1.0,82,0.00,,,0.00,12.000000,,2013-07-08 12:11:00,
2013-07-08 06:22:00,54.0,49.0,29.73,WSW,244,0.0,3.0,82,0.00,,,0.00,19.000000,,2013-07-08 12:22:00,
2013-07-08 06:33:00,55.0,49.0,29.78,SW,220,6.0,19.0,81,0.00,,,0.00,9.000000,,2013-07-08 12:33:00,
2013-07-08 06:43:00,55.0,49.0,29.78,SW,220,6.0,19.0,81,0.00,,,0.00,9.000000,,2013-07-08 12:43:00,
2013-07-08 06:53:00,57.0,50.0,29.78,South,186,4.0,12.0,76,0.00,,,0.00,7.000000,,2013-07-08 12:53:00,
2013-07-08 07:01:00,57.0,50.0,29.77,SSW,201,1.0,6.0,77,0.00,,,0.00,12.000000,,2013-07-08 13:01:00,
2013-07-08 07:11:00,57.0,50.0,29.77,SSW,201,1.0,6.0,77,0.00,,,0.00,12.000000,,2013-07-08 13:11:00,
2013-07-08 07:22:00,58.0,51.0,29.77,SSE,167,1.0,3.0,77,0.00,,,0.00,25.000000,,2013-07-08 13:22:00,
2013-07-08 07:42:00,59.0,51.0,29.79,SSE,161,0.0,10.0,76,0.00,,,0.00,21.000000,,2013-07-08 13:42:00,
2013-07-08 07:53:00,59.0,51.0,29.80,SE,144,2.0,6.0,75,0.00,,,0.00,46.000000,,2013-07-08 13:53:00,
2013-07-08 08:01:00,60.0,52.0,29.80,ESE,111,0.0,3.0,75,0.00,,,0.00,62.000000,,2013-07-08 14:01:00,
2013-07-08 08:12:00,60.0,52.0,29.80,ESE,111,0.0,3.0,75,0.00,,,0.00,62.000000,,2013-07-08 14:12:00,
2013-07-08 08:22:00,60.0,52.0,29.79,ESE,103,0.0,1.0,75,0.00,,,0.00,51.000000,,2013-07-08 14:22:00,
2013-07-08 08:33:00,60.0,53.0,29.80,NW,311,0.0,3.0,77,0.00,,,0.00,69.000000,,2013-07-08 14:33:00,
2013-07-08 08:43:00,60.0,53.0,29.80,NW,311,0.0,3.0,77,0.00,,,0.00,69.000000,,2013-07-08 14:43:00,
2013-07-08 08:53:00,60.0,53.0,29.81,NE,42,0.0,4.0,78,0.00,,,0.00,123.000000,,2013-07-08 14:53:00,
2013-07-08 09:01:00,61.0,54.0,29.81,NE,38,0.0,5.0,78,0.00,,,0.00,160.000000,,2013-07-08 15:01:00,
2013-07-08 09:11:00,61.0,54.0,29.81,NE,38,0.0,5.0,78,0.00,,,0.00,160.000000,,2013-07-08 15:11:00,
2013-07-08 09:22:00,61.0,53.0,29.81,NNE,30,0.0,3.0,76,0.00,,,0.00,162.000000,,2013-07-08 15:22:00,
2013-07-08 09:33:00,62.0,54.0,29.80,NNE,30,0.0,4.0,76,0.00,,,0.00,352.000000,,2013-07-08 15:33:00,
2013-07-08 09:43:00,62.0,54.0,29.80,NNE,30,0.0,4.0,76,0.00,,,0.00,352.000000,,2013-07-08 15:43:00,
2013-07-08 09:53:00,63.0,55.0,29.77,NE,46,0.0,6.0,74,0.00,,,0.00,156.000000,,2013-07-08 15:53:00,
2013-07-08 10:01:00,64.0,55.0,29.80,WSW,242,1.0,6.0,73,0.00,,,0.00,244.000000,,2013-07-08 16:01:00,
2013-07-08 10:11:00,64.0,55.0,29.80,WSW,242,1.0,6.0,73,0.00,,,0.00,244.000000,,2013-07-08 16:11:00,
2013-07-08 10:22:00,65.0,55.0,29.79,WNW,294,2.0,8.0,71,0.00,,,0.00,659.000000,,2013-07-08 16:22:00,
2013-07-08 10:33:00,67.0,55.0,29.80,West,281,0.0,6.0,66,0.00,,,0.00,468.000000,,2013-07-08 16:33:00,
2013-07-08 10:43:00,67.0,55.0,29.80,West,281,0.0,6.0,66,0.00,,,0.00,468.000000,,2013-07-08 16:43:00,
2013-07-08 10:56:00,68.0,56.0,29.79,SSW,192,1.0,5.0,65,0.00,,,0.00,406.000000,,2013-07-08 16:56:00,
2013-07-08 11:23:00,70.0,55.0,29.79,SE,126,2.0,8.0,59,0.00,,,0.00,371.000000,,2013-07-08 17:23:00,
2013-07-08 11:43:00,71.0,55.0,29.79,ESE,103,4.0,8.0,57,0.00,,,0.00,663.000000,,2013-07-08 17:43:00,
2013-07-08 11:54:00,72.0,55.0,29.79,SE,140,4.0,9.0,56,0.00,,,0.00,589.000000,,2013-07-08 17:54:00,
2013-07-08 12:01:00,73.0,55.0,29.78,East,98,7.0,11.0,54,0.00,,,0.00,684.000000,,2013-07-08 18:01:00,
2013-07-08 12:13:00,73.0,55.0,29.78,East,98,7.0,11.0,54,0.00,,,0.00,684.000000,,2013-07-08 18:13:00,
2013-07-08 12:59:00,74.0,55.0,29.78,SE,146,6.0,12.0,52,0.00,,,0.00,914.000000,,2013-07-08 18:59:00,
2013-07-08 13:12:00,75.0,54.0,29.78,ESE,106,4.0,13.0,48,0.00,,,0.00,909.000000,,2013-07-08 19:12:00,
2013-07-08 13:24:00,76.0,55.0,29.77,ESE,120,7.0,14.0,48,0.00,,,0.00,942.000000,,2013-07-08 19:24:00,
2013-07-08 14:24:00,68.0,54.0,29.80,SSW,213,11.0,18.0,61,0.00,,,0.00,23.000000,,2013-07-08 20:24:00,
2013-07-08 14:44:00,64.0,53.0,29.80,SSE,163,0.0,11.0,67,0.01,,,0.01,25.000000,,2013-07-08 20:44:00,
2013-07-08 15:03:00,62.0,55.0,29.82,West,277,4.0,10.0,78,0.02,,,0.02,25.000000,,2013-07-08 21:03:00,
2013-07-08 15:25:00,62.0,56.0,29.82,SW,223,4.0,7.0,81,0.02,,,0.02,564.000000,,2013-07-08 21:25:00,
2013-07-08 15:34:00,63.0,56.0,29.81,SSW,209,0.0,1.0,77,0.02,,,0.03,135.000000,,2013-07-08 21:34:00,
2013-07-08 15:42:00,63.0,56.0,29.81,SSW,209,0.0,1.0,77,0.02,,,0.03,135.000000,,2013-07-08 21:42:00,
2013-07-08 16:03:00,63.0,55.0,29.85,North,5,7.0,11.0,75,0.01,,,0.03,77.000000,,2013-07-08 22:03:00,
2013-07-08 16:23:00,64.0,57.0,29.83,East,87,0.0,10.0,79,0.02,,,0.04,824.000000,,2013-07-08 22:23:00,
2013-07-08 16:33:00,66.0,57.0,29.82,NE,51,2.0,6.0,72,0.01,,,0.04,728.000000,,2013-07-08 22:33:00,
2013-07-08 16:44:00,66.0,57.0,29.82,NE,51,2.0,6.0,72,0.01,,,0.04,728.000000,,2013-07-08 22:44:00,
2013-07-08 17:02:00,68.0,55.0,29.82,NE,35,0.0,4.0,64,0.01,,,0.04,701.000000,,2013-07-08 23:02:00,
2013-07-08 17:12:00,71.0,58.0,29.83,ENE,57,0.0,2.0,63,0.02,,,0.05,675.000000,,2013-07-08 23:12:00,
2013-07-08 17:24:00,72.0,57.0,29.83,NE,36,1.0,3.0,59,0.01,,,0.05,656.000000,,2013-07-08 23:24:00,
2013-07-08 17:34:00,73.0,56.0,29.83,NE,34,0.0,1.0,55,0.02,,,0.06,626.000000,,2013-07-08 23:34:00,
2013-07-08 17:44:00,73.0,56.0,29.83,NE,34,0.0,1.0,55,0.02,,,0.06,626.000000,,2013-07-08 23:44:00,
2013-07-08 17:52:00,74.0,56.0,29.83,NE,39,0.0,2.0,53,0.02,,,0.06,573.000000,,2013-07-08 23:52:00,
2013-07-08 18:22:00,75.0,56.0,29.83,SE,138,0.0,7.0,52,0.02,,,0.07,116.000000,,2013-07-09 00:22:00,
2013-07-08 18:52:00,77.0,53.0,29.83,WSW,238,3.0,8.0,43,0.02,,,0.08,334.000000,,2013-07-09 00:52:00,
2013-07-08 19:02:00,77.0,53.0,29.83,WSW,238,3.0,8.0,43,0.02,,,0.08,334.000000,,2013-07-09 01:02:00,
2013-07-08 19:13:00,76.0,49.0,29.83,SW,223,5.0,11.0,39,0.01,,,0.08,156.000000,,2013-07-09 01:13:00,
2013-07-08 19:22:00,76.0,46.0,29.84,WSW,237,7.0,15.0,35,0.02,,,0.09,311.000000,,2013-07-09 01:22:00,
2013-07-08 19:33:00,76.0,46.0,29.84,WSW,237,7.0,15.0,35,0.02,,,0.09,311.000000,,2013-07-09 01:33:00,
2013-07-08 19:46:00,76.0,44.0,29.84,WSW,242,7.0,15.0,32,0.02,,,0.09,144.000000,,2013-07-09 01:46:00,
2013-07-08 19:53:00,76.0,44.0,29.84,WSW,242,7.0,15.0,32,0.02,,,0.09,144.000000,,2013-07-09 01:53:00,
2013-07-08 21:03:00,64.0,50.0,29.92,SSE,151,1.0,7.0,60,0.02,,,0.12,113.000000,,2013-07-09 03:03:00,
2013-07-08 21:14:00,65.0,53.0,29.92,ENE,78,0.0,3.0,64,0.02,,,0.12,81.000000,,2013-07-09 03:14:00,
2013-07-08 21:34:00,64.0,51.0,29.93,NW,308,0.0,7.0,63,0.01,,,0.12,21.000000,,2013-07-09 03:34:00,
2013-07-08 21:45:00,64.0,53.0,29.94,NNE,15,2.0,4.0,68,0.01,,,0.12,9.000000,,2013-07-09 03:45:00,
2013-07-08 22:02:00,62.0,53.0,29.94,NNE,29,0.0,2.0,72,0.01,,,0.13,0.000000,,2013-07-09 04:02:00,
2013-07-08 22:11:00,61.0,52.0,29.95,North,351,0.0,2.0,71,0.01,,,0.13,0.000000,,2013-07-09 04:11:00,
2013-07-08 22:22:00,61.0,52.0,29.95,North,351,0.0,2.0,71,0.01,,,0.13,0.000000,,2013-07-09 04:22:00,
2013-07-08 22:33:00,61.0,52.0,29.95,North,351,0.0,2.0,71,0.01,,,0.13,0.000000,,2013-07-09 04:33:00,
2013-07-08 22:42:00,60.0,52.0,29.96,North,350,0.0,1.0,75,0.01,,,0.13,0.000000,,2013-07-09 04:42:00,
2013-07-08 22:53:00,59.0,52.0,29.96,North,350,0.0,1.0,77,0.01,,,0.14,0.000000,,2013-07-09 04:53:00,
2013-07-08 23:02:00,59.0,52.0,29.96,North,350,0.0,1.0,77,0.01,,,0.14,0.000000,,2013-07-09 05:02:00,
2013-07-08 23:11:00,59.0,52.0,29.97,SW,225,1.0,4.0,77,0.01,,,0.14,0.000000,,2013-07-09 05:11:00,
2013-07-08 23:22:00,58.0,51.0,29.98,NNW,332,0.0,5.0,77,0.01,,,0.14,0.000000,,2013-07-09 05:22:00,
2013-07-08 23:33:00,58.0,51.0,29.98,NNW,332,0.0,5.0,77,0.01,,,0.14,0.000000,,2013-07-09 05:33:00,
2013-07-08 23:42:00,57.0,51.0,29.98,NNW,332,0.0,1.0,80,0.01,,,0.14,0.000000,,2013-07-09 05:42:00,
2013-07-08 23:52:00,56.0,51.0,29.99,NW,311,2.0,5.0,82,0.00,,,0.14,0.000000,,2013-07-09 05:52:00,